createdAt,value
2018-10-09T00:01:58.009Z,90.50
2018-10-09T00:04:25.683Z,90.40
2018-10-09T00:06:53.339Z,90.40
2018-10-09T00:09:20.987Z,90.40
2018-10-09T00:11:48.714Z,90.30
2018-10-09T00:14:16.597Z,90.20
2018-10-09T00:16:44.628Z,90.30
2018-10-09T00:19:12.747Z,90.40
2018-10-09T00:21:40.852Z,90.50
2018-10-09T00:24:08.950Z,90.70
2018-10-09T00:26:37.353Z,90.60
2018-10-09T00:29:05.633Z,90.40
2018-10-09T00:31:33.521Z,90.80
2018-10-09T00:34:01.253Z,90.50
2018-10-09T00:36:28.981Z,90.50
2018-10-09T00:38:56.901Z,90.30
2018-10-09T00:41:24.631Z,90.20
2018-10-09T00:43:53.324Z,90.30
2018-10-09T00:46:21.100Z,90.20
2018-10-09T00:48:50.201Z,90.00
2018-10-09T00:51:17.983Z,90.10
2018-10-09T00:53:45.930Z,90.10
2018-10-09T00:56:14.260Z,90.50
2018-10-09T00:58:42.125Z,90.20
2018-10-09T01:01:11.038Z,90.30
2018-10-09T01:03:39.522Z,90.40
2018-10-09T01:06:09.056Z,90.30
2018-10-09T01:08:38.436Z,90.30
2018-10-09T01:11:06.549Z,90.90
2018-10-09T01:13:35.386Z,90.70
2018-10-09T01:16:04.236Z,90.60
2018-10-09T01:18:32.746Z,90.70
2018-10-09T01:21:00.667Z,90.70
2018-10-09T01:23:28.487Z,91.00
2018-10-09T01:25:56.237Z,91.10
2018-10-09T01:28:24.507Z,91.10
2018-10-09T01:30:52.535Z,91.20
2018-10-09T01:33:20.450Z,91.20
2018-10-09T01:35:48.381Z,91.30
2018-10-09T01:38:16.388Z,91.50
2018-10-09T01:40:44.288Z,91.50
2018-10-09T01:43:12.376Z,91.80
2018-10-09T01:45:40.284Z,91.50
2018-10-09T01:48:09.004Z,91.60
2018-10-09T01:50:37.088Z,91.90
2018-10-09T01:53:05.090Z,91.90
2018-10-09T01:55:32.836Z,91.90
2018-10-09T01:58:00.505Z,92.00
2018-10-09T02:00:28.275Z,91.80
2018-10-09T02:02:56.025Z,91.70
2018-10-09T02:05:23.729Z,91.80
2018-10-09T02:07:51.811Z,91.80
2018-10-09T02:10:19.842Z,91.60
2018-10-09T02:12:47.717Z,91.60
2018-10-09T02:15:15.409Z,91.50
2018-10-09T02:17:43.173Z,91.80
2018-10-09T02:20:11.273Z,91.70
2018-10-09T02:22:39.433Z,91.40
2018-10-09T02:25:07.572Z,91.30
2018-10-09T02:27:35.622Z,91.10
2018-10-09T02:30:04.276Z,91.20
2018-10-09T02:32:32.169Z,91.20
2018-10-09T02:34:59.836Z,91.20
2018-10-09T02:37:27.605Z,91.20
2018-10-09T02:39:55.873Z,91.20
2018-10-09T02:42:23.938Z,91.20
2018-10-09T02:44:52.058Z,91.40
2018-10-09T02:47:20.066Z,91.40
2018-10-09T02:49:48.182Z,91.70
2018-10-09T02:52:16.332Z,91.70
2018-10-09T02:54:44.097Z,91.70
2018-10-09T02:57:12.061Z,92.00
2018-10-09T02:59:39.920Z,91.50
2018-10-09T03:02:07.606Z,91.50
2018-10-09T03:04:35.408Z,91.50
2018-10-09T03:07:03.168Z,91.40
2018-10-09T03:09:30.908Z,91.40
2018-10-09T03:11:58.589Z,91.30
2018-10-09T03:14:26.276Z,91.20
2018-10-09T03:16:53.975Z,91.30
2018-10-09T03:19:21.650Z,91.50
2018-10-09T03:21:49.313Z,91.50
2018-10-09T03:24:17.043Z,91.70
2018-10-09T03:26:44.772Z,91.90
2018-10-09T03:29:12.416Z,92.10
2018-10-09T03:31:40.118Z,92.30
2018-10-09T03:34:08.022Z,92.30
2018-10-09T03:36:35.742Z,92.00
2018-10-09T03:39:05.326Z,92.00
2018-10-09T03:41:33.452Z,92.00
2018-10-09T03:44:01.547Z,91.80
2018-10-09T03:46:29.788Z,91.90
2018-10-09T03:48:58.757Z,91.80
2018-10-09T03:54:00.896Z,91.60
2018-10-09T03:56:28.625Z,91.60
2018-10-09T03:58:56.426Z,91.70
2018-10-09T04:01:24.301Z,91.70
2018-10-09T04:03:52.554Z,91.80
2018-10-09T04:06:20.734Z,91.90
2018-10-09T04:08:48.821Z,91.90
2018-10-09T04:11:17.918Z,92.00
2018-10-09T04:13:45.964Z,92.10
2018-10-09T04:16:14.210Z,91.90
2018-10-09T04:18:43.019Z,91.80
2018-10-09T04:21:10.954Z,91.70
2018-10-09T04:23:39.461Z,91.70
2018-10-09T04:26:08.231Z,91.80
2018-10-09T04:28:36.705Z,91.70
2018-10-09T04:31:05.006Z,91.80
2018-10-09T04:33:33.560Z,91.90
2018-10-09T04:36:04.469Z,91.90
2018-10-09T04:38:32.765Z,91.90
2018-10-09T04:41:01.046Z,91.90
2018-10-09T04:43:30.167Z,91.90
2018-10-09T04:45:58.574Z,91.70
2018-10-09T04:48:28.850Z,91.80
2018-10-09T04:50:57.182Z,91.70
2018-10-09T04:53:25.553Z,91.90
2018-10-09T04:55:54.437Z,91.90
2018-10-09T04:58:22.821Z,92.00
2018-10-09T05:00:52.503Z,92.00
2018-10-09T05:03:21.690Z,91.90
2018-10-09T05:06:01.843Z,91.90
2018-10-09T05:08:30.754Z,91.90
2018-10-09T05:10:58.535Z,91.70
2018-10-09T05:13:28.214Z,91.60
2018-10-09T05:15:56.961Z,91.70
2018-10-09T05:18:25.129Z,91.80
2018-10-09T05:20:54.249Z,92.00
2018-10-09T05:23:22.935Z,91.90
2018-10-09T05:25:51.130Z,91.80
2018-10-09T05:28:19.575Z,91.80
2018-10-09T05:30:47.452Z,91.80
2018-10-09T05:33:15.257Z,91.70
2018-10-09T05:35:43.308Z,91.70
2018-10-09T05:38:11.519Z,91.60
2018-10-09T05:40:40.505Z,91.60
2018-10-09T05:43:08.634Z,91.60
2018-10-09T05:45:39.445Z,91.60
2018-10-09T05:48:08.174Z,91.70
2018-10-09T05:50:36.534Z,91.60
2018-10-09T05:53:05.092Z,91.80
2018-10-09T05:55:33.490Z,91.90
2018-10-09T05:58:01.455Z,92.20
2018-10-09T06:00:29.774Z,92.30
2018-10-09T06:02:57.853Z,92.30
2018-10-09T06:05:26.009Z,92.30
2018-10-09T06:07:55.142Z,92.30
2018-10-09T06:10:23.212Z,92.40
2018-10-09T06:12:51.433Z,92.40
2018-10-09T06:15:20.599Z,92.40
2018-10-09T06:17:48.360Z,92.50
2018-10-09T06:20:16.342Z,92.30
2018-10-09T06:22:44.391Z,92.10
2018-10-09T06:25:13.155Z,91.90
2018-10-09T06:27:41.321Z,91.70
2018-10-09T06:30:09.378Z,91.60
2018-10-09T06:32:38.265Z,91.50
2018-10-09T06:35:06.197Z,91.70
2018-10-09T06:37:34.342Z,91.60
2018-10-09T06:40:02.284Z,91.60
2018-10-09T06:42:30.280Z,91.60
2018-10-09T06:44:58.105Z,91.70
2018-10-09T06:47:26.799Z,91.90
2018-10-09T06:49:54.543Z,91.80
2018-10-09T06:52:23.191Z,91.80
2018-10-09T06:54:51.179Z,91.70
2018-10-09T06:57:19.083Z,91.90
2018-10-09T06:59:47.623Z,92.20
2018-10-09T07:02:15.745Z,92.10
2018-10-09T07:04:43.799Z,92.00
2018-10-09T07:07:15.271Z,91.80
2018-10-09T07:09:43.320Z,91.70
2018-10-09T07:12:11.626Z,91.60
2018-10-09T07:14:39.930Z,91.80
2018-10-09T07:17:08.295Z,91.70
2018-10-09T07:19:36.154Z,92.10
2018-10-09T07:22:04.010Z,92.10
2018-10-09T07:24:32.092Z,91.80
2018-10-09T07:27:00.048Z,91.50
2018-10-09T07:29:27.925Z,91.60
2018-10-09T07:31:56.023Z,91.90
2018-10-09T07:34:24.063Z,92.30
2018-10-09T07:36:52.130Z,92.10
2018-10-09T07:39:20.018Z,91.90
2018-10-09T07:41:48.298Z,91.80
2018-10-09T07:44:16.681Z,91.60
2018-10-09T07:46:44.846Z,91.60
2018-10-09T07:49:12.761Z,91.40
2018-10-09T07:51:40.471Z,91.50
2018-10-09T07:54:08.238Z,91.40
2018-10-09T07:56:36.225Z,91.10
2018-10-09T07:59:03.961Z,91.30
2018-10-09T08:01:31.716Z,91.40
2018-10-09T08:03:59.409Z,91.30
2018-10-09T08:06:28.004Z,91.40
2018-10-09T08:08:55.776Z,91.40
2018-10-09T08:11:23.559Z,91.20
2018-10-09T08:13:51.654Z,91.40
2018-10-09T08:16:19.591Z,91.60
2018-10-09T08:18:47.273Z,91.20
2018-10-09T08:21:15.503Z,91.90
2018-10-09T08:23:43.242Z,91.50
2018-10-09T08:26:11.074Z,91.60
2018-10-09T08:28:38.922Z,91.40
2018-10-09T08:31:06.770Z,91.50
2018-10-09T08:33:34.493Z,91.40
2018-10-09T08:36:02.156Z,91.20
2018-10-09T08:38:29.798Z,91.60
2018-10-09T08:40:57.561Z,91.60
2018-10-09T08:43:25.194Z,91.80
2018-10-09T08:45:52.836Z,91.70
2018-10-09T08:48:20.563Z,91.70
2018-10-09T08:50:48.121Z,91.50
2018-10-09T08:53:15.927Z,91.30
2018-10-09T08:55:43.563Z,91.60
2018-10-09T08:58:11.247Z,91.20
2018-10-09T09:00:38.925Z,90.60
2018-10-09T09:03:06.731Z,89.90
2018-10-09T09:05:34.438Z,89.70
2018-10-09T09:08:02.121Z,88.80
2018-10-09T09:10:29.801Z,88.60
2018-10-09T09:12:57.474Z,88.20
2018-10-09T09:15:25.587Z,88.20
2018-10-09T09:17:53.469Z,85.70
2018-10-09T09:20:21.469Z,86.40
2018-10-09T09:22:49.443Z,86.20
2018-10-09T09:25:17.730Z,85.30
2018-10-09T09:27:45.765Z,84.30
2018-10-09T09:30:14.778Z,84.70
2018-10-09T09:32:42.513Z,84.10
2018-10-09T09:35:11.226Z,84.50
2018-10-09T09:37:39.053Z,84.20
2018-10-09T09:40:07.409Z,85.00
2018-10-09T09:42:35.217Z,84.90
2018-10-09T09:45:03.290Z,85.10
2018-10-09T09:47:31.558Z,85.30
2018-10-09T09:49:59.629Z,85.90
2018-10-09T09:52:27.322Z,85.00
2018-10-09T09:54:55.293Z,84.60
2018-10-09T09:57:23.625Z,84.20
2018-10-09T09:59:52.013Z,84.40
2018-10-09T10:02:19.695Z,83.40
2018-10-09T10:04:47.426Z,82.60
2018-10-09T10:07:15.166Z,81.50
2018-10-09T10:09:42.937Z,81.80
2018-10-09T10:12:10.670Z,82.00
2018-10-09T10:14:38.337Z,80.90
2018-10-09T10:17:06.100Z,80.10
2018-10-09T10:19:34.056Z,79.70
2018-10-09T10:22:01.874Z,79.10
2018-10-09T10:24:29.750Z,79.30
2018-10-09T10:26:57.470Z,79.70
2018-10-09T10:29:25.162Z,79.20
2018-10-09T10:31:52.826Z,80.30
2018-10-09T10:34:21.087Z,79.90
2018-10-09T10:36:48.915Z,78.60
2018-10-09T10:39:16.522Z,78.80
2018-10-09T10:41:44.209Z,78.20
2018-10-09T10:44:11.962Z,77.80
2018-10-09T10:46:41.005Z,77.60
2018-10-09T10:49:11.932Z,77.00
2018-10-09T10:51:39.568Z,76.20
2018-10-09T10:54:07.325Z,77.60
2018-10-09T10:56:35.469Z,76.50
2018-10-09T10:59:03.963Z,77.10
2018-10-09T11:01:31.739Z,76.80
2018-10-09T11:03:59.390Z,74.70
2018-10-09T11:09:07.481Z,75.50
2018-10-09T11:11:35.127Z,75.70
2018-10-09T11:14:02.802Z,76.40
2018-10-09T11:16:30.514Z,76.20
2018-10-09T11:18:58.423Z,75.70
2018-10-09T11:21:26.163Z,76.00
2018-10-09T11:23:53.759Z,76.20
2018-10-09T11:26:22.407Z,76.60
2018-10-09T11:28:50.350Z,77.10
2018-10-09T11:31:18.158Z,77.10
2018-10-09T11:33:45.821Z,77.10
2018-10-09T11:36:13.554Z,76.70
2018-10-09T11:38:41.501Z,77.80
2018-10-09T11:41:09.149Z,77.60
2018-10-09T11:43:36.894Z,78.10
2018-10-09T11:46:04.561Z,78.20
2018-10-09T11:48:32.286Z,77.00
2018-10-09T11:51:00.018Z,76.00
2018-10-09T11:53:27.732Z,75.90
2018-10-09T11:55:55.449Z,75.40
2018-10-09T11:58:23.093Z,75.70
2018-10-09T12:00:52.633Z,75.60
2018-10-09T12:03:20.378Z,75.00
2018-10-09T12:05:48.352Z,75.00
2018-10-09T12:08:16.113Z,74.70
2018-10-09T12:10:43.893Z,74.90
2018-10-09T12:13:11.640Z,75.50
2018-10-09T12:15:39.329Z,75.10
2018-10-09T12:18:06.987Z,74.90
2018-10-09T12:20:34.697Z,75.30
2018-10-09T12:23:02.341Z,75.10
2018-10-09T12:25:30.149Z,74.60
2018-10-09T12:27:57.807Z,74.30
2018-10-09T12:30:25.489Z,74.30
2018-10-09T12:32:53.256Z,75.10
2018-10-09T12:35:20.889Z,74.40
2018-10-09T12:37:48.562Z,73.50
2018-10-09T12:40:16.186Z,72.20
2018-10-09T12:42:43.808Z,71.90
2018-10-09T12:45:12.277Z,71.80
2018-10-09T12:47:40.144Z,72.10
2018-10-09T12:50:08.143Z,72.60
2018-10-09T12:52:36.389Z,72.20
2018-10-09T12:55:04.675Z,71.70
2018-10-09T12:57:32.591Z,72.00
2018-10-09T13:00:00.644Z,71.40
2018-10-09T13:02:28.524Z,71.30
2018-10-09T13:04:56.525Z,71.60
2018-10-09T13:07:24.318Z,71.10
2018-10-09T13:09:52.058Z,70.80
2018-10-09T13:12:19.815Z,70.70
2018-10-09T13:14:47.590Z,70.60
2018-10-09T13:17:15.401Z,70.50
2018-10-09T13:19:44.010Z,69.70
2018-10-09T13:22:12.248Z,69.70
2018-10-09T13:24:39.662Z,70.00
2018-10-09T13:27:07.763Z,69.40
2018-10-09T13:29:35.715Z,68.60
2018-10-09T13:32:03.462Z,68.70
2018-10-09T13:34:31.231Z,68.40
2018-10-09T13:36:59.326Z,68.20
2018-10-09T13:39:26.971Z,68.30
2018-10-09T13:41:54.644Z,68.20
2018-10-09T13:44:23.053Z,68.40
2018-10-09T13:46:51.070Z,67.90
2018-10-09T13:49:18.966Z,68.10
2018-10-09T13:51:46.714Z,68.20
2018-10-09T13:54:14.385Z,68.20
2018-10-09T13:56:41.973Z,67.80
2018-10-09T13:59:09.910Z,67.60
2018-10-09T14:01:37.778Z,67.10
2018-10-09T14:04:05.501Z,67.40
2018-10-09T14:06:33.167Z,67.70
2018-10-09T14:09:00.758Z,67.50
2018-10-09T14:11:28.723Z,67.40
2018-10-09T14:14:03.375Z,67.30
2018-10-09T14:16:31.155Z,68.20
2018-10-09T14:18:58.889Z,67.10
2018-10-09T14:21:26.623Z,67.20
2018-10-09T14:23:55.129Z,68.20
2018-10-09T14:26:22.770Z,67.20
2018-10-09T14:28:50.467Z,66.80
2018-10-09T14:31:18.195Z,67.10
2018-10-09T14:33:45.961Z,67.00
2018-10-09T14:36:13.616Z,66.90
2018-10-09T14:38:41.356Z,67.30
2018-10-09T14:41:09.154Z,67.80
2018-10-09T14:43:36.898Z,68.10
2018-10-09T14:46:04.590Z,68.00
2018-10-09T14:48:32.268Z,68.40
2018-10-09T14:50:59.890Z,68.70
2018-10-09T14:53:27.508Z,68.50
2018-10-09T14:55:55.180Z,68.50
2018-10-09T14:58:22.912Z,68.40
2018-10-09T15:00:50.605Z,68.80
2018-10-09T15:03:18.534Z,68.40
2018-10-09T15:05:46.453Z,67.70
2018-10-09T15:08:14.342Z,67.90
2018-10-09T15:10:42.070Z,69.20
2018-10-09T15:13:09.922Z,69.20
2018-10-09T15:15:37.557Z,69.70
2018-10-09T15:18:05.354Z,70.20
2018-10-09T15:20:32.924Z,70.60
2018-10-09T15:23:00.685Z,71.20
2018-10-09T15:25:28.334Z,71.50
2018-10-09T15:27:56.099Z,72.60
2018-10-09T15:30:23.803Z,73.40
2018-10-09T15:32:51.475Z,73.90
2018-10-09T15:35:19.160Z,74.40
2018-10-09T15:37:46.878Z,74.90
2018-10-09T15:40:14.609Z,75.40
2018-10-09T15:42:42.329Z,75.70
2018-10-09T15:45:09.933Z,76.10
2018-10-09T15:47:37.691Z,76.90
2018-10-09T15:50:05.867Z,77.50
2018-10-09T15:52:33.554Z,77.90
2018-10-09T15:55:01.161Z,78.10
2018-10-09T15:57:28.814Z,78.50
2018-10-09T15:59:56.897Z,78.40
2018-10-09T16:02:24.669Z,78.70
2018-10-09T16:04:52.397Z,78.80
2018-10-09T16:07:20.159Z,79.30
2018-10-09T16:09:47.874Z,79.60
2018-10-09T16:12:15.801Z,80.00
2018-10-09T16:14:43.781Z,80.20
2018-10-09T16:17:11.646Z,80.50
2018-10-09T16:19:39.426Z,80.80
2018-10-09T16:22:07.160Z,81.10
2018-10-09T16:24:35.041Z,81.20
2018-10-09T16:27:02.808Z,81.30
2018-10-09T16:29:30.420Z,81.50
2018-10-09T16:31:58.157Z,81.70
2018-10-09T16:34:26.054Z,82.00
2018-10-09T16:36:53.863Z,82.10
2018-10-09T16:39:21.846Z,82.10
2018-10-09T16:41:49.812Z,83.00
2018-10-09T16:44:17.694Z,82.50
2018-10-09T16:46:45.706Z,82.70
2018-10-09T16:49:13.349Z,82.80
2018-10-09T16:51:41.186Z,83.10
2018-10-09T16:54:12.138Z,83.50
2018-10-09T16:56:41.178Z,84.00
2018-10-09T16:59:09.954Z,84.10
2018-10-09T17:01:38.026Z,84.30
2018-10-09T17:04:06.005Z,84.80
2018-10-09T17:06:33.973Z,85.40
2018-10-09T17:09:08.708Z,86.00
2018-10-09T17:11:37.746Z,86.50
2018-10-09T17:14:09.108Z,86.80
2018-10-09T17:16:45.383Z,86.90
2018-10-09T17:19:14.137Z,87.00
2018-10-09T17:21:43.556Z,86.90
2018-10-09T17:24:19.229Z,87.60
2018-10-09T17:26:49.856Z,87.90
2018-10-09T17:29:19.684Z,88.20
2018-10-09T17:31:50.034Z,88.20
2018-10-09T17:34:19.145Z,88.40
2018-10-09T17:36:47.615Z,88.30
2018-10-09T17:39:18.163Z,88.50
2018-10-09T17:42:00.675Z,88.30
2018-10-09T17:44:33.038Z,88.40
2018-10-09T17:47:05.260Z,89.10
2018-10-09T17:49:41.159Z,89.30
2018-10-09T17:52:13.553Z,89.60
2018-10-09T17:54:42.399Z,90.00
2018-10-09T17:57:12.357Z,90.10
2018-10-09T17:59:56.734Z,90.30
2018-10-09T18:02:28.790Z,90.40
2018-10-09T18:04:59.282Z,90.50
2018-10-09T18:07:28.010Z,90.60
2018-10-09T18:09:58.367Z,90.50
2018-10-09T18:12:26.394Z,90.50
2018-10-09T18:14:54.185Z,90.60
2018-10-09T18:17:23.297Z,90.50
2018-10-09T18:19:51.173Z,90.50
2018-10-09T18:22:18.953Z,90.40
2018-10-09T18:24:47.738Z,90.40
2018-10-09T18:27:18.796Z,90.30
2018-10-09T18:29:46.838Z,90.30
2018-10-09T18:32:14.634Z,90.30
2018-10-09T18:34:42.513Z,90.10
2018-10-09T18:37:10.173Z,90.10
2018-10-09T18:39:38.099Z,90.10
2018-10-09T18:42:06.382Z,90.10
2018-10-09T18:44:34.563Z,90.00
2018-10-09T18:47:03.144Z,90.10
2018-10-09T18:49:31.292Z,90.30
2018-10-09T18:51:59.279Z,90.20
2018-10-09T18:54:28.181Z,90.30
2018-10-09T18:56:56.154Z,90.20
2018-10-09T18:59:23.973Z,90.30
2018-10-09T19:01:52.260Z,90.50
2018-10-09T19:04:22.172Z,90.90
2018-10-09T19:06:54.941Z,91.10
2018-10-09T19:09:23.209Z,91.10
2018-10-09T19:11:51.183Z,90.90
2018-10-09T19:14:19.307Z,91.30
2018-10-09T19:16:47.214Z,91.60
2018-10-09T19:19:15.145Z,91.60
2018-10-09T19:21:43.119Z,91.50
2018-10-09T19:24:11.075Z,91.30
2018-10-09T19:26:39.302Z,91.20
2018-10-09T19:29:07.268Z,91.10
2018-10-09T19:31:35.403Z,91.00
2018-10-09T19:34:03.223Z,90.90
2018-10-09T19:36:31.065Z,90.90
2018-10-09T19:38:59.062Z,90.90
2018-10-09T19:41:26.690Z,90.70
2018-10-09T19:43:55.579Z,90.70
2018-10-09T19:46:24.471Z,90.70
2018-10-09T19:48:52.183Z,90.90
2018-10-09T19:51:19.977Z,90.60
2018-10-09T19:53:47.606Z,90.50
2018-10-09T19:56:15.339Z,90.50
2018-10-09T19:58:43.383Z,90.50
2018-10-09T20:01:15.030Z,90.40
2018-10-09T20:03:43.321Z,90.20
2018-10-09T20:06:11.520Z,90.00
2018-10-09T20:08:40.031Z,89.90
2018-10-09T20:11:07.967Z,89.80
2018-10-09T20:13:37.598Z,89.70
2018-10-09T20:16:06.803Z,89.70
2018-10-09T20:18:38.489Z,89.50
2018-10-09T20:22:11.116Z,89.20
2018-10-09T20:24:39.022Z,89.30
2018-10-09T20:27:07.345Z,89.10
2018-10-09T20:29:36.125Z,89.20
2018-10-09T20:32:04.635Z,89.50
2018-10-09T20:34:32.491Z,89.30
2018-10-09T20:37:00.223Z,89.80
2018-10-09T20:39:33.419Z,90.00
2018-10-09T20:42:01.605Z,90.00
2018-10-09T20:44:29.925Z,90.20
2018-10-09T20:46:58.841Z,90.30
2018-10-09T20:49:26.717Z,90.30
2018-10-09T20:51:54.594Z,90.40
2018-10-09T20:54:22.146Z,90.20
2018-10-09T20:56:49.823Z,90.20
2018-10-09T20:59:17.646Z,90.20
2018-10-09T21:01:45.691Z,90.30
2018-10-09T21:04:13.534Z,90.30
2018-10-09T21:06:42.129Z,90.30
2018-10-09T21:09:09.810Z,90.50
2018-10-09T21:11:37.422Z,90.30
2018-10-09T21:14:05.224Z,90.40
2018-10-09T21:16:33.001Z,90.30
2018-10-09T21:19:00.658Z,90.40
2018-10-09T21:21:28.640Z,90.70
2018-10-09T21:23:56.584Z,90.80
2018-10-09T21:26:24.500Z,90.90
2018-10-09T21:28:52.545Z,90.80
2018-10-09T21:31:20.629Z,90.80
2018-10-09T21:33:49.543Z,90.80
2018-10-09T21:36:17.469Z,90.70
2018-10-09T21:38:45.101Z,90.70
2018-10-09T21:41:12.821Z,90.70
2018-10-09T21:43:40.573Z,90.70
2018-10-09T21:46:09.134Z,90.80
2018-10-09T21:48:36.858Z,90.70
2018-10-09T21:51:04.995Z,91.10
2018-10-09T21:53:32.814Z,91.00
2018-10-09T21:56:01.152Z,91.00
2018-10-09T21:58:28.916Z,90.90
2018-10-09T22:01:02.209Z,90.50
2018-10-09T22:03:29.794Z,90.30
2018-10-09T22:05:57.421Z,90.30
2018-10-09T22:08:25.050Z,90.10
2018-10-09T22:10:54.451Z,90.10
2018-10-09T22:13:22.197Z,90.50
2018-10-09T22:15:50.038Z,90.30
2018-10-09T22:18:17.613Z,90.30
2018-10-09T22:20:45.260Z,90.10
2018-10-09T22:23:12.937Z,90.10
2018-10-09T22:25:40.987Z,90.00
2018-10-09T22:28:12.908Z,90.00
2018-10-09T22:30:41.324Z,90.10
2018-10-09T22:33:09.355Z,90.30
2018-10-09T22:35:37.346Z,90.30
2018-10-09T22:38:05.525Z,90.30
2018-10-09T22:40:33.173Z,90.40
2018-10-09T22:43:00.769Z,90.60
2018-10-09T22:45:28.434Z,90.60
2018-10-09T22:47:56.163Z,90.50
2018-10-09T22:50:23.802Z,90.20
2018-10-09T22:52:51.533Z,90.50
2018-10-09T22:55:19.131Z,90.50
2018-10-09T22:57:47.221Z,90.40
2018-10-09T23:00:15.306Z,90.30
2018-10-09T23:02:43.783Z,90.40
2018-10-09T23:05:11.450Z,90.30
2018-10-09T23:07:39.928Z,90.30
2018-10-09T23:10:07.982Z,90.20
2018-10-09T23:12:35.729Z,90.10
2018-10-09T23:15:03.902Z,90.00
2018-10-09T23:17:31.565Z,90.00
2018-10-09T23:19:59.837Z,90.20
2018-10-09T23:22:27.925Z,90.20
2018-10-09T23:24:55.870Z,90.30
2018-10-09T23:27:24.614Z,90.20
2018-10-09T23:29:52.933Z,90.30
2018-10-09T23:32:20.764Z,90.20
2018-10-09T23:34:48.782Z,90.70
2018-10-09T23:37:16.597Z,90.50
2018-10-09T23:39:44.334Z,90.60
2018-10-09T23:42:12.118Z,90.70
2018-10-09T23:44:40.128Z,90.70
2018-10-09T23:47:08.369Z,90.50
2018-10-09T23:49:36.167Z,90.60
2018-10-09T23:52:04.244Z,90.50
2018-10-09T23:54:32.426Z,90.50
2018-10-09T23:57:00.524Z,90.30
2018-10-09T23:59:28.619Z,90.30
